首页
METAR-TAF:

METAR-TAF

机场 :

薩萊諾, 意大利

纬度: 40-37N, 经度: 014-55E, 海拔: 40米

当前天气观测

该预报发布于1小时和13分钟前的08:50 UTC
风速4节,风向西转西北,在西之间变化
温度 32°C
湿度 38%
气压 1011 hPa
能见度10公里或以上
1500米以下无云,无积雨云

METAR: LIRI 010850Z 30004KT 260V350 CAVOK 32/16 Q1011

时间: 12:03 (10:03 UTC)


TAF: 丢失

超过4000个机场的气象观测和天气预报(METAR&TAF报告)。

可查询的气象台以黄色和红色小点在地图上表示。

将鼠标移到小点上方,可查看气象台名称。

然后点击查看天气观测和预报。

如需切换地图:点击带黑十字的绿色按钮放大地图;点击带横线的绿色按钮缩小地图;或者点击绿色箭头查看邻近地区的地图。


METAR-TAF: